createdAt,value
2019-03-24T00:00:47.827Z,92.87
2019-03-24T00:01:47.801Z,92.67
2019-03-24T00:02:47.798Z,93.54
2019-03-24T00:03:47.792Z,93.12
2019-03-24T00:04:47.753Z,93.02
2019-03-24T00:05:47.762Z,92.87
2019-03-24T00:06:47.735Z,92.50
2019-03-24T00:07:47.744Z,92.82
2019-03-24T00:08:47.714Z,92.36
2019-03-24T00:09:47.723Z,92.16
2019-03-24T00:10:47.685Z,92.50
2019-03-24T00:11:47.672Z,92.10
2019-03-24T00:12:47.666Z,91.99
2019-03-24T00:13:47.650Z,92.61
2019-03-24T00:14:47.660Z,91.78
2019-03-24T00:15:47.627Z,92.10
2019-03-24T00:16:47.622Z,92.10
2019-03-24T00:17:47.650Z,92.71
2019-03-24T00:18:47.594Z,92.71
2019-03-24T00:19:47.599Z,92.40
2019-03-24T00:20:47.577Z,92.10
2019-03-24T00:21:47.574Z,92.40
2019-03-24T00:22:47.571Z,92.67
2019-03-24T00:23:47.541Z,92.40
2019-03-24T00:24:47.526Z,92.71
2019-03-24T00:25:47.521Z,92.82
2019-03-24T00:26:47.507Z,92.82
2019-03-24T00:27:47.513Z,92.82
2019-03-24T00:28:47.568Z,92.20
2019-03-24T00:29:47.473Z,92.20
2019-03-24T00:30:47.461Z,92.20
2019-03-24T00:31:47.478Z,92.10
2019-03-24T00:32:47.434Z,92.71
2019-03-24T00:33:47.424Z,91.78
2019-03-24T00:34:48.220Z,92.40
2019-03-24T00:35:47.403Z,92.30
2019-03-24T00:36:47.420Z,92.50
2019-03-24T00:37:47.379Z,92.40
2019-03-24T00:38:47.372Z,92.50
2019-03-24T00:39:47.357Z,92.20
2019-03-24T00:40:47.348Z,92.40
2019-03-24T00:41:47.396Z,92.30
2019-03-24T00:42:47.354Z,92.10
2019-03-24T00:43:47.311Z,92.50
2019-03-24T00:44:47.300Z,92.50
2019-03-24T00:45:47.290Z,92.61
2019-03-24T00:46:47.280Z,91.93
2019-03-24T00:47:49.438Z,92.03
2019-03-24T00:48:47.262Z,92.14
2019-03-24T00:49:47.270Z,92.03
2019-03-24T00:50:47.234Z,91.83
2019-03-24T00:51:47.224Z,91.93
2019-03-24T00:52:47.212Z,92.24
2019-03-24T00:53:47.201Z,92.03
2019-03-24T00:54:47.210Z,91.83
2019-03-24T00:55:47.182Z,91.93
2019-03-24T00:56:47.167Z,92.44
2019-03-24T00:57:47.153Z,91.93
2019-03-24T00:58:47.164Z,92.24
2019-03-24T00:59:47.129Z,92.14
2019-03-24T01:00:47.120Z,91.93
2019-03-24T01:01:47.130Z,91.83
2019-03-24T01:02:47.099Z,92.14
2019-03-24T01:03:47.088Z,92.96
2019-03-24T01:04:47.078Z,91.62
2019-03-24T01:05:47.062Z,91.93
2019-03-24T01:06:47.073Z,92.24
2019-03-24T01:07:47.048Z,92.44
2019-03-24T01:08:47.033Z,92.34
2019-03-24T01:09:47.020Z,91.62
2019-03-24T01:10:47.038Z,91.31
2019-03-24T01:11:46.993Z,91.42
2019-03-24T01:12:46.986Z,91.62
2019-03-24T01:13:46.971Z,91.77
2019-03-24T01:14:46.961Z,91.56
2019-03-24T01:15:48.078Z,91.87
2019-03-24T01:16:46.943Z,91.77
2019-03-24T01:17:46.931Z,91.66
2019-03-24T01:18:46.916Z,91.25
2019-03-24T01:19:46.907Z,91.46
2019-03-24T01:20:46.916Z,91.77
2019-03-24T01:21:46.886Z,91.46
2019-03-24T01:22:46.876Z,91.56
2019-03-24T01:23:46.864Z,91.05
2019-03-24T01:24:46.852Z,91.05
2019-03-24T01:25:46.861Z,91.25
2019-03-24T01:26:46.832Z,91.36
2019-03-24T01:27:46.838Z,91.36
2019-03-24T01:28:46.807Z,90.94
2019-03-24T01:29:46.821Z,90.84
2019-03-24T01:30:46.780Z,90.94
2019-03-24T01:31:46.817Z,91.56
2019-03-24T01:32:46.758Z,91.15
2019-03-24T01:33:46.766Z,91.25
2019-03-24T01:34:46.741Z,91.05
2019-03-24T01:35:46.728Z,90.64
2019-03-24T01:36:46.716Z,90.67
2019-03-24T01:37:46.723Z,90.64
2019-03-24T01:38:46.689Z,90.67
2019-03-24T01:39:46.688Z,90.84
2019-03-24T01:40:46.670Z,90.67
2019-03-24T01:41:46.658Z,90.67
2019-03-24T01:42:46.667Z,90.73
2019-03-24T01:43:46.638Z,90.78
2019-03-24T01:44:46.625Z,90.78
2019-03-24T01:45:46.615Z,90.78
2019-03-24T01:46:46.600Z,89.95
2019-03-24T01:47:46.611Z,90.37
2019-03-24T01:48:46.583Z,90.99
2019-03-24T01:49:46.575Z,90.78
2019-03-24T01:50:46.555Z,90.47
2019-03-24T01:51:46.548Z,90.37
2019-03-24T01:52:46.563Z,90.26
2019-03-24T01:53:46.521Z,89.13
2019-03-24T01:54:46.515Z,89.34
2019-03-24T01:55:46.499Z,89.38
2019-03-24T01:56:46.492Z,88.72
2019-03-24T01:57:46.507Z,88.35
2019-03-24T01:58:46.464Z,88.24
2019-03-24T01:59:46.456Z,88.04
2019-03-24T02:00:46.444Z,88.96
2019-03-24T02:01:46.437Z,89.07
2019-03-24T02:02:46.452Z,87.93
2019-03-24T02:03:46.412Z,87.35
2019-03-24T02:04:46.401Z,87.26
2019-03-24T02:05:46.409Z,87.21
2019-03-24T02:06:46.377Z,86.74
2019-03-24T02:07:46.383Z,86.94
2019-03-24T02:08:46.357Z,86.84
2019-03-24T02:09:46.351Z,86.94
2019-03-24T02:10:46.331Z,86.80
2019-03-24T02:12:01.059Z,85.81
2019-03-24T02:12:46.336Z,85.39
2019-03-24T02:13:46.300Z,85.91
2019-03-24T02:14:46.304Z,84.88
2019-03-24T02:15:46.299Z,85.19
2019-03-24T02:16:46.267Z,85.09
2019-03-24T02:17:46.257Z,84.57
2019-03-24T02:18:46.241Z,85.09
2019-03-24T02:19:46.257Z,85.39
2019-03-24T02:20:46.221Z,85.50
2019-03-24T02:21:46.209Z,85.39
2019-03-24T02:22:46.220Z,84.92
2019-03-24T02:23:46.187Z,84.81
2019-03-24T02:24:46.178Z,84.92
2019-03-24T02:25:46.187Z,84.41
2019-03-24T02:26:46.154Z,85.09
2019-03-24T02:27:46.144Z,83.78
2019-03-24T02:28:46.131Z,84.51
2019-03-24T02:29:46.121Z,83.48
2019-03-24T02:30:46.126Z,83.27
2019-03-24T02:31:46.099Z,83.27
2019-03-24T02:32:46.113Z,84.41
2019-03-24T02:33:46.075Z,84.61
2019-03-24T02:34:46.064Z,84.41
2019-03-24T02:35:46.054Z,83.48
2019-03-24T02:36:46.041Z,83.17
2019-03-24T02:37:46.105Z,83.37
2019-03-24T02:38:46.020Z,83.37
2019-03-24T02:39:46.009Z,82.55
2019-03-24T02:40:45.999Z,83.27
2019-03-24T02:41:46.013Z,83.06
2019-03-24T02:42:45.991Z,83.17
2019-03-24T02:43:46.019Z,83.58
2019-03-24T02:44:45.953Z,83.83
2019-03-24T02:45:45.941Z,83.37
2019-03-24T02:46:45.929Z,84.51
2019-03-24T02:47:45.941Z,83.20
2019-03-24T02:48:45.907Z,83.20
2019-03-24T02:49:45.899Z,82.96
2019-03-24T02:50:45.886Z,83.20
2019-03-24T02:51:45.873Z,81.96
2019-03-24T02:52:45.894Z,81.96
2019-03-24T02:53:45.850Z,83.20
2019-03-24T02:54:45.841Z,82.89
2019-03-24T02:55:45.833Z,83.20
2019-03-24T02:56:45.818Z,83.20
2019-03-24T02:57:45.835Z,83.00
2019-03-24T02:58:45.811Z,82.89
2019-03-24T02:59:45.785Z,82.28
2019-03-24T03:00:45.772Z,83.20
2019-03-24T03:01:45.761Z,82.38
2019-03-24T03:02:45.776Z,83.00
2019-03-24T03:03:45.768Z,82.38
2019-03-24T03:04:45.731Z,82.52
2019-03-24T03:05:45.720Z,82.38
2019-03-24T03:06:45.731Z,83.04
2019-03-24T03:07:45.712Z,83.00
2019-03-24T03:08:45.710Z,83.55
2019-03-24T03:09:45.686Z,82.38
2019-03-24T03:10:45.659Z,81.70
2019-03-24T03:11:45.671Z,82.38
2019-03-24T03:12:47.787Z,81.56
2019-03-24T03:13:45.653Z,81.38
2019-03-24T03:14:45.616Z,80.93
2019-03-24T03:15:45.608Z,80.87
2019-03-24T03:16:45.591Z,81.38
2019-03-24T03:17:45.633Z,81.70
2019-03-24T03:18:45.572Z,81.28
2019-03-24T03:19:45.588Z,81.59
2019-03-24T03:20:45.549Z,81.80
2019-03-24T03:21:45.541Z,81.90
2019-03-24T03:22:45.551Z,82.42
2019-03-24T03:23:45.521Z,82.52
2019-03-24T03:24:45.503Z,81.49
2019-03-24T03:25:45.492Z,81.18
2019-03-24T03:26:45.506Z,81.49
2019-03-24T03:27:45.468Z,80.97
2019-03-24T03:28:45.460Z,81.90
2019-03-24T03:29:45.449Z,82.42
2019-03-24T03:30:45.443Z,81.70
2019-03-24T03:31:45.457Z,82.31
2019-03-24T03:32:45.444Z,81.38
2019-03-24T03:33:45.416Z,81.28
2019-03-24T03:34:45.402Z,82.10
2019-03-24T03:35:45.409Z,81.18
2019-03-24T03:36:45.402Z,81.07
2019-03-24T03:37:45.362Z,81.18
2019-03-24T03:38:45.348Z,82.21
2019-03-24T03:39:45.342Z,81.80
2019-03-24T03:40:45.363Z,82.52
2019-03-24T03:41:45.317Z,81.38
2019-03-24T03:42:45.303Z,81.07
2019-03-24T03:43:45.291Z,81.49
2019-03-24T03:44:45.281Z,81.42
2019-03-24T03:45:45.311Z,81.28
2019-03-24T03:46:52.302Z,80.97
2019-03-24T03:47:46.244Z,81.11
2019-03-24T03:48:45.233Z,80.90
2019-03-24T03:49:45.222Z,82.04
2019-03-24T03:50:45.213Z,81.70
2019-03-24T03:51:45.241Z,81.84
2019-03-24T03:52:45.202Z,81.42
2019-03-24T03:53:45.181Z,81.42
2019-03-24T03:54:45.175Z,81.84
2019-03-24T03:55:45.158Z,80.90
2019-03-24T03:56:45.202Z,81.52
2019-03-24T03:57:45.156Z,80.90
2019-03-24T03:58:45.120Z,80.70
2019-03-24T03:59:45.115Z,80.90
2019-03-24T04:00:45.124Z,80.70
2019-03-24T04:01:45.095Z,80.90
2019-03-24T04:02:45.085Z,80.60
2019-03-24T04:03:45.087Z,81.73
2019-03-24T04:04:45.060Z,81.94
2019-03-24T04:05:45.043Z,82.45
2019-03-24T04:06:45.056Z,81.63
2019-03-24T04:07:45.024Z,80.70
2019-03-24T04:08:45.009Z,80.70
2019-03-24T04:09:45.027Z,81.42
2019-03-24T04:10:44.987Z,81.32
2019-03-24T04:11:45.078Z,81.52
2019-03-24T04:12:44.965Z,82.15
2019-03-24T04:13:44.959Z,81.52
2019-03-24T04:14:44.947Z,81.52
2019-03-24T04:15:45.036Z,81.63
2019-03-24T04:16:44.945Z,82.35
2019-03-24T04:17:44.943Z,82.25
2019-03-24T04:18:44.901Z,81.63
2019-03-24T04:19:44.906Z,81.84
2019-03-24T04:20:44.877Z,81.56
2019-03-24T04:21:44.865Z,82.45
2019-03-24T04:22:44.884Z,82.15
2019-03-24T04:23:44.843Z,81.67
2019-03-24T04:24:44.832Z,81.42
2019-03-24T04:25:44.819Z,81.56
2019-03-24T04:26:44.808Z,82.08
2019-03-24T04:27:44.813Z,82.18
2019-03-24T04:28:44.822Z,82.08
2019-03-24T04:29:44.775Z,82.08
2019-03-24T04:30:44.763Z,82.18
2019-03-24T04:31:44.753Z,82.29
2019-03-24T04:32:44.744Z,82.18
2019-03-24T04:33:44.757Z,83.32
2019-03-24T04:34:44.717Z,82.50
2019-03-24T04:35:44.709Z,83.84
2019-03-24T04:36:44.706Z,83.73
2019-03-24T04:37:44.684Z,83.32
2019-03-24T04:38:44.696Z,82.18
2019-03-24T04:39:44.691Z,82.08
2019-03-24T04:40:44.651Z,82.60
2019-03-24T04:41:44.641Z,82.39
2019-03-24T04:42:44.641Z,83.11
2019-03-24T04:43:44.623Z,82.80
2019-03-24T04:44:44.629Z,83.42
2019-03-24T04:45:44.595Z,83.42
2019-03-24T04:46:44.584Z,83.42
2019-03-24T04:47:44.574Z,83.22
2019-03-24T04:48:44.561Z,83.42
2019-03-24T04:49:44.577Z,83.22
2019-03-24T04:50:44.544Z,83.53
2019-03-24T04:51:44.528Z,83.73
2019-03-24T04:52:44.516Z,83.42
2019-03-24T04:53:44.507Z,83.84
2019-03-24T04:54:44.524Z,84.81
2019-03-24T04:55:44.483Z,83.84
2019-03-24T04:56:44.473Z,83.73
2019-03-24T04:57:44.460Z,83.94
2019-03-24T04:58:44.452Z,83.63
2019-03-24T04:59:44.461Z,83.42
2019-03-24T05:00:44.427Z,83.84
2019-03-24T05:01:44.418Z,84.56
2019-03-24T05:02:44.405Z,83.94
2019-03-24T05:03:44.417Z,83.98
2019-03-24T05:04:44.382Z,83.87
2019-03-24T05:05:44.372Z,83.87
2019-03-24T05:06:44.360Z,83.98
2019-03-24T05:07:44.373Z,84.25
2019-03-24T05:08:44.337Z,84.29
2019-03-24T05:09:44.329Z,84.60
2019-03-24T05:10:44.318Z,84.39
2019-03-24T05:11:44.303Z,83.87
2019-03-24T05:12:44.324Z,85.22
2019-03-24T05:13:44.282Z,84.91
2019-03-24T05:14:44.271Z,84.91
2019-03-24T05:15:44.261Z,84.91
2019-03-24T05:16:44.275Z,85.22
2019-03-24T05:17:44.239Z,85.11
2019-03-24T05:18:44.228Z,85.11
2019-03-24T05:19:44.237Z,84.91
2019-03-24T05:20:44.203Z,85.02
2019-03-24T05:21:44.192Z,85.02
2019-03-24T05:22:44.186Z,85.02
2019-03-24T05:23:46.089Z,85.22
2019-03-24T05:24:44.158Z,85.22
2019-03-24T05:25:44.149Z,85.22
2019-03-24T05:26:44.172Z,85.22
2019-03-24T05:27:44.129Z,85.32
2019-03-24T05:28:44.113Z,85.42
2019-03-24T05:29:44.103Z,85.74
2019-03-24T05:30:44.091Z,86.15
2019-03-24T05:31:44.110Z,85.74
2019-03-24T05:32:44.070Z,86.05
2019-03-24T05:33:44.058Z,86.15
2019-03-24T05:34:44.047Z,85.53
2019-03-24T05:35:44.035Z,85.11
2019-03-24T05:36:44.053Z,85.74
2019-03-24T05:37:44.015Z,85.63
2019-03-24T05:38:44.005Z,85.84
2019-03-24T05:39:43.990Z,85.84
2019-03-24T05:40:43.980Z,85.88
2019-03-24T05:41:43.984Z,85.68
2019-03-24T05:42:43.956Z,85.78
2019-03-24T05:43:43.945Z,85.88
2019-03-24T05:44:43.972Z,85.78
2019-03-24T05:45:43.923Z,85.88
2019-03-24T05:46:43.938Z,86.40
2019-03-24T05:47:43.900Z,87.02
2019-03-24T05:48:43.890Z,86.19
2019-03-24T05:49:43.879Z,87.08
2019-03-24T05:50:43.898Z,86.29
2019-03-24T05:51:43.855Z,86.29
2019-03-24T05:52:43.846Z,85.88
2019-03-24T05:53:43.835Z,86.40
2019-03-24T05:54:43.822Z,86.50
2019-03-24T05:55:43.837Z,86.60
2019-03-24T05:56:43.799Z,86.40
2019-03-24T05:57:43.811Z,87.12
2019-03-24T05:58:43.779Z,87.23
2019-03-24T05:59:43.766Z,87.12
2019-03-24T06:00:43.755Z,86.81
2019-03-24T06:01:43.743Z,87.02
2019-03-24T06:02:43.764Z,86.81
2019-03-24T06:03:43.722Z,87.23
2019-03-24T06:04:43.709Z,87.02
2019-03-24T06:05:43.699Z,87.02
2019-03-24T06:06:43.687Z,86.81
2019-03-24T06:07:43.702Z,86.81
2019-03-24T06:08:43.688Z,87.02
2019-03-24T06:09:43.679Z,86.81
2019-03-24T06:10:43.643Z,86.81
2019-03-24T06:11:43.630Z,87.23
2019-03-24T06:12:43.619Z,87.33
2019-03-24T06:13:43.640Z,86.60
2019-03-24T06:14:43.603Z,87.33
2019-03-24T06:15:43.586Z,87.33
2019-03-24T06:16:43.575Z,87.64
2019-03-24T06:17:47.883Z,87.74
2019-03-24T06:18:43.574Z,87.33
2019-03-24T06:19:43.541Z,87.64
2019-03-24T06:20:43.533Z,87.85
2019-03-24T06:21:43.521Z,87.54
2019-03-24T06:22:43.507Z,87.02
2019-03-24T06:23:43.514Z,87.54
2019-03-24T06:24:43.502Z,88.06
2019-03-24T06:25:43.503Z,87.74
2019-03-24T06:26:43.463Z,87.54
2019-03-24T06:27:43.451Z,87.64
2019-03-24T06:28:43.441Z,88.06
2019-03-24T06:29:43.430Z,87.64
2019-03-24T06:30:43.436Z,88.57
2019-03-24T06:31:43.407Z,88.57
2019-03-24T06:32:43.486Z,88.06
2019-03-24T06:33:43.385Z,88.16
2019-03-24T06:34:43.373Z,87.64
2019-03-24T06:35:43.364Z,87.54
2019-03-24T06:36:43.380Z,88.16
2019-03-24T06:37:43.339Z,87.64
2019-03-24T06:38:43.362Z,88.06
2019-03-24T06:39:43.317Z,87.54
2019-03-24T06:40:43.304Z,87.23
2019-03-24T06:41:43.294Z,87.23
2019-03-24T06:42:43.286Z,87.33
2019-03-24T06:43:43.290Z,86.91
2019-03-24T06:44:43.261Z,86.91
2019-03-24T06:45:43.249Z,87.27
2019-03-24T06:46:43.263Z,87.43
2019-03-24T06:47:43.230Z,87.43
2019-03-24T06:48:43.245Z,87.12
2019-03-24T06:49:43.204Z,87.23
2019-03-24T06:50:43.194Z,87.23
2019-03-24T06:51:43.209Z,87.74
2019-03-24T06:52:43.193Z,87.54
2019-03-24T06:53:43.239Z,87.54
2019-03-24T06:54:43.152Z,87.64
2019-03-24T06:55:43.137Z,86.91
2019-03-24T06:56:43.125Z,86.81
2019-03-24T06:57:43.138Z,87.12
2019-03-24T06:58:43.131Z,87.64
2019-03-24T06:59:43.095Z,87.99
2019-03-24T07:00:43.084Z,87.64
2019-03-24T07:01:43.099Z,87.54
2019-03-24T07:02:43.060Z,87.64
2019-03-24T07:03:43.050Z,88.16
2019-03-24T07:04:43.041Z,87.33
2019-03-24T07:05:43.061Z,87.74
2019-03-24T07:06:43.015Z,87.64
2019-03-24T07:07:43.009Z,87.64
2019-03-24T07:08:42.998Z,87.68
2019-03-24T07:09:42.979Z,87.64
2019-03-24T07:10:42.985Z,87.54
2019-03-24T07:11:42.958Z,88.36
2019-03-24T07:12:42.947Z,87.74
2019-03-24T07:13:42.960Z,87.74
2019-03-24T07:14:42.924Z,88.36
2019-03-24T07:15:42.913Z,88.67
2019-03-24T07:16:42.903Z,87.54
2019-03-24T07:17:42.892Z,88.57
2019-03-24T07:18:42.904Z,88.67
2019-03-24T07:19:42.868Z,88.16
2019-03-24T07:20:42.880Z,87.74
2019-03-24T07:21:42.847Z,88.26
2019-03-24T07:22:42.834Z,88.36
2019-03-24T07:23:42.827Z,88.78
2019-03-24T07:24:42.835Z,88.26
2019-03-24T07:25:42.801Z,88.67
2019-03-24T07:26:42.792Z,88.26
2019-03-24T07:27:42.781Z,87.74
2019-03-24T07:28:42.767Z,87.02
2019-03-24T07:29:42.777Z,87.54
2019-03-24T07:30:42.744Z,87.23
2019-03-24T07:31:42.742Z,87.23
2019-03-24T07:32:42.723Z,87.33
2019-03-24T07:33:42.720Z,87.54
2019-03-24T07:34:42.727Z,87.54
2019-03-24T07:35:42.692Z,87.54
2019-03-24T07:36:42.677Z,87.08
2019-03-24T07:37:42.666Z,87.23
2019-03-24T07:38:42.657Z,86.71
2019-03-24T07:39:42.660Z,87.29
2019-03-24T07:40:42.643Z,87.08
2019-03-24T07:41:42.642Z,86.57
2019-03-24T07:42:42.614Z,86.77
2019-03-24T07:43:42.601Z,86.36
2019-03-24T07:44:42.611Z,87.08
2019-03-24T07:45:42.578Z,86.98
2019-03-24T07:46:42.565Z,87.08
2019-03-24T07:47:42.584Z,87.33
2019-03-24T07:48:42.543Z,87.12
2019-03-24T07:49:42.535Z,87.18
2019-03-24T07:50:42.524Z,87.18
2019-03-24T07:51:42.544Z,87.18
2019-03-24T07:52:42.499Z,87.18
2019-03-24T07:53:42.488Z,86.57
2019-03-24T07:54:42.479Z,86.67
2019-03-24T07:55:42.465Z,86.36
2019-03-24T07:56:42.477Z,86.88
2019-03-24T07:57:42.442Z,87.08
2019-03-24T07:58:42.446Z,86.83
2019-03-24T07:59:42.442Z,87.04
2019-03-24T08:00:42.414Z,86.42
2019-03-24T08:01:42.419Z,86.73
2019-03-24T08:02:50.789Z,87.04
2019-03-24T08:03:43.375Z,87.04
2019-03-24T08:04:42.367Z,86.73
2019-03-24T08:05:42.377Z,86.52
2019-03-24T08:06:42.342Z,87.25
2019-03-24T08:07:42.332Z,86.73
2019-03-24T08:08:44.499Z,86.32
2019-03-24T08:09:42.330Z,86.94
2019-03-24T08:10:42.296Z,86.94
2019-03-24T08:11:42.285Z,85.70
2019-03-24T08:12:42.299Z,86.11
2019-03-24T08:13:53.117Z,85.80
2019-03-24T08:14:43.275Z,86.01
2019-03-24T08:15:42.240Z,86.32
2019-03-24T08:16:42.268Z,85.60
2019-03-24T08:17:42.218Z,86.38
2019-03-24T08:18:42.207Z,85.66
2019-03-24T08:19:42.196Z,86.38
2019-03-24T08:20:42.188Z,86.07
2019-03-24T08:21:42.197Z,85.76
2019-03-24T08:22:42.185Z,85.72
2019-03-24T08:23:42.151Z,85.21
2019-03-24T08:24:42.139Z,85.62
2019-03-24T08:25:42.127Z,85.62
2019-03-24T08:26:42.117Z,85.21
2019-03-24T08:27:42.134Z,85.00
2019-03-24T08:28:42.097Z,84.89
2019-03-24T08:29:42.084Z,85.62
2019-03-24T08:30:42.095Z,85.72
2019-03-24T08:31:42.068Z,85.10
2019-03-24T08:32:42.053Z,85.00
2019-03-24T08:33:42.039Z,85.06
2019-03-24T08:34:42.030Z,85.27
2019-03-24T08:35:42.040Z,85.06
2019-03-24T08:36:42.006Z,84.55
2019-03-24T08:37:42.014Z,84.55
2019-03-24T08:38:41.982Z,84.86
2019-03-24T08:39:41.973Z,84.44
2019-03-24T08:40:41.961Z,84.41
2019-03-24T08:41:41.973Z,84.92
2019-03-24T08:42:41.942Z,84.92
2019-03-24T08:43:41.929Z,84.81
2019-03-24T08:44:41.918Z,84.57
2019-03-24T08:45:41.947Z,83.68
2019-03-24T08:46:44.417Z,83.58
2019-03-24T08:47:41.882Z,83.27
2019-03-24T08:48:41.877Z,83.03
2019-03-24T08:49:41.860Z,83.33
2019-03-24T08:50:41.875Z,83.13
2019-03-24T08:51:41.863Z,83.13
2019-03-24T08:52:41.826Z,82.82
2019-03-24T08:53:41.816Z,83.13
2019-03-24T08:54:41.802Z,83.29
2019-03-24T08:55:41.812Z,83.19
2019-03-24T08:56:41.780Z,82.98
2019-03-24T08:57:41.782Z,83.67
2019-03-24T08:58:41.782Z,81.92
2019-03-24T08:59:41.769Z,83.26
2019-03-24T09:00:41.750Z,82.74
2019-03-24T09:01:41.747Z,82.43
2019-03-24T09:02:41.712Z,83.42
2019-03-24T09:03:41.704Z,81.61
2019-03-24T09:04:41.690Z,80.75
2019-03-24T09:05:41.681Z,81.71
2019-03-24T09:06:41.688Z,81.05
2019-03-24T09:07:41.656Z,81.26
2019-03-24T09:08:41.644Z,81.57
2019-03-24T09:09:41.668Z,81.92
2019-03-24T09:10:41.622Z,80.89
2019-03-24T09:11:41.610Z,80.79
2019-03-24T09:12:41.601Z,80.68
2019-03-24T09:13:41.631Z,81.30
2019-03-24T09:14:41.606Z,81.37
2019-03-24T09:15:43.218Z,80.95
2019-03-24T09:16:41.561Z,80.40
2019-03-24T09:17:41.572Z,81.53
2019-03-24T09:18:52.147Z,80.47
2019-03-24T09:19:42.544Z,80.12
2019-03-24T09:20:42.099Z,80.53
2019-03-24T09:21:41.502Z,78.44
2019-03-24T09:22:41.489Z,76.93
2019-03-24T09:23:41.492Z,77.96
2019-03-24T09:24:41.465Z,78.54
2019-03-24T09:25:41.478Z,78.44
2019-03-24T09:26:41.442Z,78.61
2019-03-24T09:27:41.431Z,78.47
2019-03-24T09:28:41.425Z,77.75
2019-03-24T09:29:41.408Z,77.03
2019-03-24T09:30:41.418Z,76.00
2019-03-24T09:31:41.390Z,74.40
2019-03-24T09:32:41.396Z,76.38
2019-03-24T09:33:41.364Z,77.10
2019-03-24T09:34:41.352Z,77.65
2019-03-24T09:35:41.340Z,77.13
2019-03-24T09:36:41.328Z,75.49
2019-03-24T09:37:41.351Z,76.45
2019-03-24T09:38:41.312Z,76.42
2019-03-24T09:39:41.295Z,76.51
2019-03-24T09:40:41.287Z,75.29
2019-03-24T09:41:41.273Z,75.04
2019-03-24T09:42:41.288Z,75.49
2019-03-24T09:43:41.251Z,74.98
2019-03-24T09:44:41.238Z,74.77
2019-03-24T09:45:41.228Z,74.87
2019-03-24T09:46:41.232Z,75.42
2019-03-24T09:47:41.221Z,74.80
2019-03-24T09:48:41.219Z,75.15
2019-03-24T09:49:41.204Z,76.18
2019-03-24T09:50:41.196Z,77.10
2019-03-24T09:51:41.189Z,77.06
2019-03-24T09:52:41.236Z,76.31
2019-03-24T09:53:41.139Z,74.70
2019-03-24T09:54:41.141Z,74.91
2019-03-24T09:55:41.147Z,75.32
2019-03-24T09:56:41.103Z,75.32
2019-03-24T09:57:41.091Z,76.14
2019-03-24T09:58:41.080Z,76.35
2019-03-24T09:59:41.070Z,76.14
2019-03-24T10:00:41.082Z,76.25
2019-03-24T10:01:41.050Z,75.29
2019-03-24T10:02:41.036Z,76.21
2019-03-24T10:03:41.028Z,76.00
2019-03-24T10:04:41.021Z,74.67
2019-03-24T10:05:41.031Z,76.17
2019-03-24T10:06:41.021Z,76.34
2019-03-24T10:07:40.979Z,74.74
2019-03-24T10:08:46.989Z,76.07
2019-03-24T10:09:41.955Z,76.34
2019-03-24T10:10:40.949Z,75.62
2019-03-24T10:11:40.956Z,74.19
2019-03-24T10:12:40.921Z,74.26
2019-03-24T10:13:40.933Z,75.38
2019-03-24T10:14:40.922Z,76.35
2019-03-24T10:15:40.888Z,77.06
2019-03-24T10:16:40.877Z,77.27
2019-03-24T10:17:40.869Z,76.00
2019-03-24T10:18:40.868Z,75.04
2019-03-24T10:19:40.843Z,75.35
2019-03-24T10:20:40.865Z,75.08
2019-03-24T10:21:40.820Z,76.28
2019-03-24T10:22:40.831Z,75.29
2019-03-24T10:23:40.799Z,76.17
2019-03-24T10:24:40.816Z,74.67
2019-03-24T10:25:40.801Z,76.51
2019-03-24T10:26:40.764Z,75.70
2019-03-24T10:27:40.754Z,76.21
2019-03-24T10:28:40.744Z,76.51
2019-03-24T10:29:40.729Z,75.35
2019-03-24T10:30:40.740Z,75.42
2019-03-24T10:31:42.541Z,74.43
2019-03-24T10:32:40.696Z,74.08
2019-03-24T10:33:40.684Z,74.19
2019-03-24T10:34:40.673Z,76.24
2019-03-24T10:35:40.685Z,75.79
2019-03-24T10:36:40.654Z,74.80
2019-03-24T10:37:40.661Z,74.84
2019-03-24T10:38:40.632Z,73.91
2019-03-24T10:39:40.617Z,73.16
2019-03-24T10:40:40.630Z,73.68
2019-03-24T10:41:40.599Z,74.11
2019-03-24T10:42:40.585Z,72.48
2019-03-24T10:43:40.574Z,71.59
2019-03-24T10:44:40.560Z,71.49
2019-03-24T10:45:40.573Z,73.13
2019-03-24T10:46:40.539Z,73.13
2019-03-24T10:47:40.526Z,71.36
2019-03-24T10:48:40.521Z,71.25
2019-03-24T10:49:40.510Z,71.62
2019-03-24T10:50:40.519Z,71.53
2019-03-24T10:51:40.502Z,71.56
2019-03-24T10:52:40.471Z,71.90
2019-03-24T10:53:40.461Z,73.23
2019-03-24T10:54:40.451Z,72.69
2019-03-24T10:55:40.437Z,71.62
2019-03-24T10:56:40.465Z,71.32
2019-03-24T10:57:40.417Z,71.22
2019-03-24T10:58:40.433Z,71.36
2019-03-24T10:59:40.391Z,72.00
2019-03-24T11:00:40.394Z,73.13
2019-03-24T11:01:40.417Z,72.78
2019-03-24T11:02:40.360Z,72.72
2019-03-24T11:03:40.346Z,73.61
2019-03-24T11:04:40.337Z,72.86
2019-03-24T11:05:40.351Z,72.65
2019-03-24T11:06:40.334Z,71.01
2019-03-24T11:07:40.307Z,72.04
2019-03-24T11:08:40.319Z,71.62
2019-03-24T11:09:40.279Z,70.95
2019-03-24T11:10:40.269Z,70.64
2019-03-24T11:11:40.257Z,71.12
2019-03-24T11:12:40.276Z,69.52
2019-03-24T11:13:40.239Z,70.26
2019-03-24T11:14:40.227Z,70.16
2019-03-24T11:15:40.211Z,70.78
2019-03-24T11:16:40.221Z,71.83
2019-03-24T11:17:40.224Z,71.29
2019-03-24T11:18:40.179Z,70.43
2019-03-24T11:19:40.169Z,70.34
2019-03-24T11:20:40.159Z,69.62
2019-03-24T11:21:40.147Z,70.57
2019-03-24T11:22:40.157Z,70.54
2019-03-24T11:23:40.145Z,70.75
2019-03-24T11:24:40.132Z,69.52
2019-03-24T11:25:40.099Z,70.03
2019-03-24T11:26:40.090Z,70.10
2019-03-24T11:27:40.077Z,69.28
2019-03-24T11:28:40.088Z,69.38
2019-03-24T11:29:40.073Z,69.21
2019-03-24T11:30:40.043Z,70.84
2019-03-24T11:31:40.053Z,69.85
2019-03-24T11:32:40.043Z,70.37
2019-03-24T11:33:40.008Z,70.26
2019-03-24T11:34:39.997Z,69.31
2019-03-24T11:35:40.013Z,69.55
2019-03-24T11:36:40.010Z,70.00
2019-03-24T11:37:39.962Z,69.79
2019-03-24T11:38:39.979Z,68.97
2019-03-24T11:39:39.995Z,69.59
2019-03-24T11:40:39.929Z,68.26
2019-03-24T11:41:39.924Z,68.94
2019-03-24T11:42:39.906Z,67.38
2019-03-24T11:43:39.910Z,67.11
2019-03-24T11:44:39.883Z,66.39
2019-03-24T11:45:39.874Z,65.72
2019-03-24T11:46:39.868Z,64.06
2019-03-24T11:47:39.863Z,63.65
2019-03-24T11:48:39.859Z,64.26
2019-03-24T11:49:45.954Z,62.66
2019-03-24T11:50:40.815Z,62.21
2019-03-24T11:51:39.818Z,64.59
2019-03-24T11:52:39.823Z,64.52
2019-03-24T11:53:39.787Z,64.39
2019-03-24T11:54:39.771Z,65.34
2019-03-24T11:55:39.760Z,63.31
2019-03-24T11:56:39.748Z,64.46
2019-03-24T11:57:39.761Z,62.96
2019-03-24T11:58:39.810Z,64.28
2019-03-24T11:59:39.715Z,63.64
2019-03-24T12:00:39.706Z,65.25
2019-03-24T12:01:39.706Z,64.20
2019-03-24T12:02:39.704Z,62.66
2019-03-24T12:03:39.668Z,63.61
2019-03-24T12:04:39.659Z,62.73
2019-03-24T12:05:39.675Z,63.78
2019-03-24T12:06:39.639Z,63.64
2019-03-24T12:07:39.624Z,65.25
2019-03-24T12:08:39.637Z,63.00
2019-03-24T12:09:39.605Z,62.90
2019-03-24T12:10:39.598Z,61.07
2019-03-24T12:11:39.579Z,62.36
2019-03-24T12:12:39.568Z,62.23
2019-03-24T12:13:39.573Z,61.56
2019-03-24T12:14:39.549Z,60.41
2019-03-24T12:15:39.535Z,62.32
2019-03-24T12:16:39.526Z,59.16
2019-03-24T12:17:39.514Z,58.33
2019-03-24T12:18:39.523Z,57.89
2019-03-24T12:19:39.490Z,57.08
2019-03-24T12:20:39.480Z,56.37
2019-03-24T12:21:39.468Z,56.70
2019-03-24T12:22:39.462Z,57.99
2019-03-24T12:23:39.458Z,57.48
2019-03-24T12:24:39.466Z,55.68
2019-03-24T12:25:39.422Z,56.62
2019-03-24T12:26:39.410Z,56.65
2019-03-24T12:27:39.401Z,56.75
2019-03-24T12:28:39.391Z,56.88
2019-03-24T12:29:39.398Z,58.33
2019-03-24T12:30:39.364Z,58.46
2019-03-24T12:31:39.353Z,62.71
2019-03-24T12:32:39.343Z,58.89
2019-03-24T12:33:39.332Z,57.54
2019-03-24T12:34:39.356Z,58.63
2019-03-24T12:35:39.308Z,56.70
2019-03-24T12:36:39.298Z,56.32
2019-03-24T12:37:39.302Z,55.94
2019-03-24T12:38:39.280Z,56.85
2019-03-24T12:39:39.262Z,58.72
2019-03-24T12:40:39.282Z,60.17
2019-03-24T12:41:39.239Z,61.60
2019-03-24T12:42:39.229Z,60.05
2019-03-24T12:43:39.217Z,61.27
2019-03-24T12:44:39.205Z,60.91
2019-03-24T12:45:39.215Z,60.39
2019-03-24T12:46:39.183Z,57.92
2019-03-24T12:47:39.171Z,58.67
2019-03-24T12:48:39.163Z,57.95
2019-03-24T12:49:39.198Z,58.80
2019-03-24T12:50:39.152Z,59.58
2019-03-24T12:51:39.157Z,60.24
2019-03-24T12:52:39.117Z,59.60